Time;durP1;ratioP1;P1;durP2;ratioP2;P2;SDS_P1;SDS_P2;PMS_P1;PMS_P2;Temp;Humidity;BMP_temperature;BMP_pressure;BME280_temperature;BME280_humidity;BME280_pressure;Samples;Min_cycle;Max_cycle;Signal;HPM_P1;HPM_P2
2021/07/25 00:02:19;;;;;;;4.38;3.20;;;24.40;66.80;;;;;;4970709;28;90115;-19
2021/07/25 00:04:45;;;;;;;4.30;3.45;;;24.30;66.70;;;;;;4972267;28;88369;-18
2021/07/25 00:07:11;;;;;;;5.43;4.00;;;24.40;66.80;;;;;;4973313;28;87668;-18
2021/07/25 00:09:36;;;;;;;4.47;3.45;;;24.30;66.80;;;;;;4973537;28;87328;-18
2021/07/25 00:12:02;;;;;;;5.80;3.72;;;24.30;66.80;;;;;;4972877;28;88718;-18
2021/07/25 00:14:28;;;;;;;5.50;3.67;;;24.30;66.80;;;;;;4971895;28;88375;-18
2021/07/25 00:16:53;;;;;;;5.28;3.80;;;24.30;66.80;;;;;;4971845;28;88875;-18
2021/07/25 00:19:19;;;;;;;5.70;3.50;;;24.30;66.80;;;;;;4972017;28;87292;-18
2021/07/25 00:21:44;;;;;;;6.15;4.18;;;24.30;66.90;;;;;;4971517;28;88246;-18
2021/07/25 00:24:10;;;;;;;5.10;3.53;;;24.40;66.90;;;;;;4971350;28;91138;-18
2021/07/25 00:26:46;;;;;;;4.47;3.97;;;24.30;66.80;;;;;;4971425;28;87055;-18
2021/07/25 00:29:11;;;;;;;4.43;3.40;;;24.30;66.80;;;;;;4972348;28;88105;-18
2021/07/25 00:31:37;;;;;;;5.03;3.45;;;24.30;66.80;;;;;;4971751;28;87722;-18
2021/07/25 00:34:06;;;;;;;4.00;3.38;;;24.30;66.80;;;;;;4972208;28;87429;-18
2021/07/25 00:36:31;;;;;;;4.70;3.70;;;24.30;66.80;;;;;;4971780;28;88521;-19
2021/07/25 00:38:57;;;;;;;4.50;3.78;;;24.30;66.80;;;;;;4971569;28;88177;-18
2021/07/25 00:41:23;;;;;;;4.78;3.45;;;24.30;66.80;;;;;;4970647;28;89238;-18
2021/07/25 00:43:49;;;;;;;4.70;3.30;;;24.30;66.80;;;;;;4986479;28;89798;-18
2021/07/25 00:46:16;;;;;;;5.65;3.45;;;24.30;66.80;;;;;;4972055;28;87975;-19
2021/07/25 00:48:44;;;;;;;4.22;3.30;;;24.30;66.80;;;;;;4971777;28;87637;-19
2021/07/25 00:51:09;;;;;;;4.88;3.67;;;24.30;66.80;;;;;;4971607;28;88309;-17
2021/07/25 00:53:37;;;;;;;5.15;3.85;;;24.30;66.80;;;;;;4970327;28;88687;-17
2021/07/25 00:56:04;;;;;;;4.97;3.47;;;24.30;66.80;;;;;;4970399;28;87335;-18
2021/07/25 00:58:31;;;;;;;3.75;3.10;;;24.30;66.90;;;;;;4970984;28;87549;-18
2021/07/25 01:00:57;;;;;;;4.53;3.13;;;24.30;66.80;;;;;;4971271;28;87661;-19
2021/07/25 01:03:51;;;;;;;5.05;3.72;;;24.30;66.80;;;;;;4970661;28;88211;-18
2021/07/25 01:06:32;;;;;;;5.20;3.63;;;24.30;66.80;;;;;;4970969;28;88385;-18
2021/07/25 01:09:02;;;;;;;3.97;3.33;;;24.30;66.90;;;;;;4971481;28;87143;-18
2021/07/25 01:11:37;;;;;;;4.43;3.47;;;24.20;66.80;;;;;;4970198;28;88135;-19
2021/07/25 01:14:03;;;;;;;5.30;3.53;;;24.30;66.80;;;;;;4970714;28;88366;-18
2021/07/25 01:16:31;;;;;;;4.57;3.50;;;24.20;66.80;;;;;;4969910;28;87565;-17
2021/07/25 01:18:57;;;;;;;4.75;3.35;;;24.20;66.80;;;;;;4970800;28;87176;-19
2021/07/25 01:21:23;;;;;;;4.57;3.40;;;24.20;66.80;;;;;;4971225;28;89067;-18
2021/07/25 01:23:49;;;;;;;5.25;3.78;;;24.30;66.90;;;;;;4971735;28;87854;-18
2021/07/25 01:26:26;;;;;;;4.15;3.28;;;24.20;66.80;;;;;;4971864;28;88463;-19
2021/07/25 01:28:54;;;;;;;4.55;3.55;;;24.20;66.80;;;;;;4970910;28;87907;-17
2021/07/25 01:31:25;;;;;;;4.68;3.13;;;24.20;66.80;;;;;;4970103;28;89109;-18
2021/07/25 01:33:53;;;;;;;4.78;3.50;;;24.20;66.80;;;;;;4970565;28;88862;-18
2021/07/25 01:36:19;;;;;;;5.07;3.35;;;24.20;66.80;;;;;;4970859;28;88004;-18
2021/07/25 01:38:45;;;;;;;4.90;3.42;;;24.20;66.90;;;;;;4970591;28;87878;-19
2021/07/25 01:41:15;;;;;;;5.30;3.20;;;24.20;66.90;;;;;;4969772;28;88503;-18
2021/07/25 01:43:43;;;;;;;3.88;3.13;;;24.20;66.80;;;;;;4971070;28;87913;-17
2021/07/25 01:46:10;;;;;;;4.78;3.63;;;24.20;66.80;;;;;;4971518;28;88051;-19
2021/07/25 01:48:38;;;;;;;3.80;2.83;;;24.20;66.80;;;;;;4970973;28;87155;-18
2021/07/25 01:51:05;;;;;;;4.53;3.13;;;24.20;66.80;;;;;;4970948;28;88431;-19
2021/07/25 01:53:32;;;;;;;4.10;3.30;;;24.20;66.90;;;;;;4970934;28;88014;-19
2021/07/25 01:55:57;;;;;;;5.05;3.78;;;24.20;66.80;;;;;;4970460;28;88520;-18
2021/07/25 01:58:23;;;;;;;4.25;2.75;;;24.20;66.90;;;;;;4970381;28;87815;-19
2021/07/25 02:00:49;;;;;;;3.63;3.05;;;24.20;66.80;;;;;;4969900;28;88506;-18
2021/07/25 02:03:20;;;;;;;4.00;3.35;;;24.20;66.90;;;;;;4970570;28;88693;-17
2021/07/25 02:05:46;;;;;;;4.60;3.25;;;24.20;66.90;;;;;;4970632;28;87065;-19
2021/07/25 02:08:11;;;;;;;4.05;3.45;;;24.20;66.90;;;;;;4970632;28;87960;-18
2021/07/25 02:10:37;;;;;;;4.75;3.70;;;24.20;66.90;;;;;;4969360;28;88403;-18
2021/07/25 02:13:02;;;;;;;3.38;3.03;;;24.20;66.90;;;;;;4970182;28;88005;-18
2021/07/25 02:15:28;;;;;;;4.03;3.25;;;24.20;66.90;;;;;;4970985;28;87116;-18
2021/07/25 02:17:54;;;;;;;3.65;2.90;;;24.20;66.90;;;;;;4970565;28;88043;-18
2021/07/25 02:20:19;;;;;;;3.28;2.72;;;24.20;66.90;;;;;;4969974;28;88932;-17
2021/07/25 02:22:45;;;;;;;4.30;3.50;;;24.10;66.90;;;;;;4970095;28;88298;-17
2021/07/25 02:25:12;;;;;;;4.10;3.67;;;24.20;66.90;;;;;;4970579;28;87072;-18
2021/07/25 02:27:38;;;;;;;4.07;3.28;;;24.20;66.90;;;;;;4970359;28;87818;-18
2021/07/25 02:30:03;;;;;;;5.13;3.17;;;24.10;66.80;;;;;;4970283;28;90140;-19
2021/07/25 02:32:29;;;;;;;4.05;3.33;;;24.10;67.40;;;;;;4970493;28;88429;-18
2021/07/25 02:34:55;;;;;;;4.60;3.63;;;24.10;66.80;;;;;;4970093;28;87794;-19
2021/07/25 02:37:20;;;;;;;4.35;3.45;;;24.20;66.90;;;;;;4971103;28;87660;-19
2021/07/25 02:39:46;;;;;;;4.40;3.33;;;24.10;66.90;;;;;;4965537;28;88165;-18
2021/07/25 02:42:11;;;;;;;3.72;3.13;;;24.10;66.90;;;;;;4950736;28;87870;-19
2021/07/25 02:44:37;;;;;;;3.50;3.20;;;24.10;66.80;;;;;;4949622;28;89439;-18
2021/07/25 02:47:03;;;;;;;4.43;3.38;;;24.10;66.80;;;;;;4968668;28;88030;-18
2021/07/25 02:49:28;;;;;;;3.88;3.30;;;24.10;66.80;;;;;;4969468;28;87840;-19
2021/07/25 02:51:55;;;;;;;4.28;3.25;;;24.10;66.80;;;;;;4970230;28;88111;-19
2021/07/25 02:54:21;;;;;;;4.28;3.47;;;24.10;66.90;;;;;;4968891;28;88127;-19
2021/07/25 02:56:46;;;;;;;4.07;3.55;;;24.10;66.90;;;;;;4968442;28;87228;-19
2021/07/25 02:59:12;;;;;;;3.38;3.05;;;24.10;66.90;;;;;;4968749;28;88305;-17
2021/07/25 03:01:38;;;;;;;3.55;3.13;;;24.10;66.90;;;;;;4969574;28;87772;-18
2021/07/25 03:04:03;;;;;;;3.47;2.78;;;24.10;66.90;;;;;;4969759;28;88273;-19
2021/07/25 03:06:29;;;;;;;3.33;2.78;;;24.10;66.90;;;;;;4967710;28;90543;-18
2021/07/25 03:08:54;;;;;;;4.70;3.70;;;24.10;66.90;;;;;;4968852;28;89903;-18
2021/07/25 03:11:21;;;;;;;4.18;3.30;;;24.10;66.90;;;;;;4968865;28;88339;-18
2021/07/25 03:13:47;;;;;;;3.50;2.95;;;24.10;66.90;;;;;;4970137;28;88441;-18
2021/07/25 03:16:13;;;;;;;3.33;2.80;;;24.10;66.90;;;;;;4969769;28;87858;-18
2021/07/25 03:18:38;;;;;;;3.53;3.13;;;24.10;66.90;;;;;;4969536;28;88686;-18
2021/07/25 03:21:07;;;;;;;4.25;3.15;;;24.10;66.90;;;;;;4969376;28;88119;-18
2021/07/25 03:23:33;;;;;;;4.18;3.20;;;24.10;66.90;;;;;;4969783;28;87842;-18
2021/07/25 03:25:58;;;;;;;3.70;3.15;;;24.10;66.90;;;;;;4969540;28;87361;-18
2021/07/25 03:28:24;;;;;;;3.97;3.05;;;24.10;66.90;;;;;;4969477;28;87833;-18
2021/07/25 03:30:50;;;;;;;3.55;3.15;;;24.10;66.90;;;;;;4969887;28;87684;-18
2021/07/25 03:33:17;;;;;;;3.88;3.05;;;24.10;66.90;;;;;;4969557;28;88658;-18
2021/07/25 03:35:43;;;;;;;3.20;2.90;;;24.10;66.90;;;;;;4970214;28;88466;-18
2021/07/25 03:38:09;;;;;;;4.05;3.40;;;24.10;66.90;;;;;;4969372;28;88255;-18
2021/07/25 03:40:35;;;;;;;3.67;3.03;;;24.10;66.90;;;;;;4969501;28;87927;-20
2021/07/25 03:43:02;;;;;;;3.97;2.92;;;24.10;66.90;;;;;;4969587;28;88298;-19
2021/07/25 03:45:27;;;;;;;3.40;2.92;;;24.10;66.90;;;;;;4964680;28;88262;-19
2021/07/25 03:47:53;;;;;;;4.97;3.28;;;24.10;66.90;;;;;;4964425;28;90289;-19
2021/07/25 03:50:20;;;;;;;3.80;3.00;;;24.10;66.90;;;;;;4969351;28;89170;-18
2021/07/25 03:52:46;;;;;;;4.22;3.47;;;24.00;66.90;;;;;;4969965;28;87132;-20
2021/07/25 03:55:12;;;;;;;4.03;3.20;;;24.00;66.80;;;;;;4968986;28;87672;-18
2021/07/25 03:57:38;;;;;;;3.45;2.80;;;24.00;66.90;;;;;;4968330;28;89030;-18
2021/07/25 04:00:05;;;;;;;3.83;2.90;;;24.00;66.90;;;;;;4971278;28;88282;-19
2021/07/25 04:02:31;;;;;;;3.08;2.78;;;24.00;66.90;;;;;;4973247;28;87084;-19
2021/07/25 04:04:57;;;;;;;3.03;2.72;;;24.00;66.90;;;;;;4972975;28;87539;-19
2021/07/25 04:07:25;;;;;;;3.38;2.85;;;24.00;66.90;;;;;;4973130;28;87708;-18
2021/07/25 04:09:51;;;;;;;3.50;2.67;;;24.00;66.90;;;;;;4972855;28;87951;-17
2021/07/25 04:12:17;;;;;;;3.92;2.95;;;24.00;66.90;;;;;;4971755;28;87520;-19
2021/07/25 04:14:42;;;;;;;4.03;3.13;;;24.00;66.90;;;;;;4972082;28;86971;-18
2021/07/25 04:17:08;;;;;;;2.42;2.13;;;24.00;66.90;;;;;;4986311;28;88518;-18
2021/07/25 04:19:33;;;;;;;3.92;3.00;;;24.00;66.90;;;;;;4972730;28;87807;-18
2021/07/25 04:21:59;;;;;;;3.17;2.88;;;24.00;66.90;;;;;;4972695;28;88603;-19
2021/07/25 04:24:25;;;;;;;3.85;2.90;;;24.00;66.80;;;;;;4972331;28;87723;-18
2021/07/25 04:26:52;;;;;;;4.85;3.03;;;24.00;66.90;;;;;;4972042;28;89358;-17
2021/07/25 04:29:18;;;;;;;3.70;2.75;;;24.00;66.90;;;;;;4972297;28;91178;-19
2021/07/25 04:31:44;;;;;;;3.25;2.95;;;24.00;66.90;;;;;;4971416;28;88427;-18
2021/07/25 04:34:11;;;;;;;3.58;3.00;;;24.00;66.80;;;;;;4972620;28;88031;-18
2021/07/25 04:36:37;;;;;;;4.18;2.78;;;24.00;66.90;;;;;;4972430;28;88472;-19
2021/07/25 04:39:07;;;;;;;3.20;2.83;;;24.00;66.80;;;;;;4973396;28;87946;-18
2021/07/25 04:42:08;;;;;;;3.08;2.78;;;24.00;66.80;;;;;;4971884;28;88134;-19
2021/07/25 04:44:49;;;;;;;3.70;2.78;;;24.00;66.80;;;;;;4967170;28;88393;-19
2021/07/25 04:47:19;;;;;;;3.55;2.85;;;24.00;66.80;;;;;;4971262;28;90678;-17
2021/07/25 04:50:06;;;;;;;3.28;2.97;;;24.00;66.80;;;;;;4971722;28;89441;-18
2021/07/25 04:52:40;;;;;;;3.45;2.85;;;24.00;66.80;;;;;;4970935;28;87237;-19
2021/07/25 04:55:11;;;;;;;4.00;3.35;;;24.00;66.80;;;;;;4966496;28;88171;-18
2021/07/25 04:57:40;;;;;;;3.08;2.58;;;24.10;66.80;;;;;;4971234;28;87945;-18
2021/07/25 05:00:08;;;;;;;4.28;3.20;;;24.00;66.70;;;;;;4971355;28;87463;-17
2021/07/25 05:02:37;;;;;;;3.78;2.55;;;24.10;66.70;;;;;;4971538;28;87992;-18
2021/07/25 05:05:02;;;;;;;3.47;2.80;;;24.10;66.70;;;;;;4972874;28;87281;-19
2021/07/25 05:07:34;;;;;;;3.78;3.33;;;24.10;66.60;;;;;;4972208;28;87772;-18
2021/07/25 05:10:00;;;;;;;4.38;2.67;;;24.10;66.50;;;;;;4971234;28;91570;-19
2021/07/25 05:12:36;;;;;;;3.50;2.78;;;24.10;66.50;;;;;;4970803;28;88012;-18
2021/07/25 05:15:10;;;;;;;3.85;3.13;;;24.20;66.50;;;;;;4972147;28;87570;-19
2021/07/25 05:18:00;;;;;;;4.28;2.88;;;24.20;66.40;;;;;;4972002;28;88631;-19
2021/07/25 05:20:53;;;;;;;2.85;2.53;;;24.20;66.20;;;;;;4969044;28;90494;-19
2021/07/25 05:23:25;;;;;;;3.20;2.83;;;24.30;66.20;;;;;;4971599;28;88421;-18
2021/07/25 05:25:53;;;;;;;3.80;2.67;;;24.30;66.20;;;;;;4953050;28;88823;-17
2021/07/25 05:28:20;;;;;;;2.97;2.53;;;24.30;66.30;;;;;;4964710;28;88357;-18
2021/07/25 05:30:53;;;;;;;4.30;2.47;;;24.30;66.20;;;;;;4950301;28;87779;-15
2021/07/25 05:33:20;;;;;;;;;;;24.40;66.20;;;;;;4950737;28;87144;-16
2021/07/25 05:35:46;;;;;;;3.30;2.67;;;24.40;66.30;;;;;;4953220;28;88226;-16
2021/07/25 05:38:11;;;;;;;4.28;2.60;;;24.40;66.30;;;;;;4970417;28;89278;-17
2021/07/25 05:40:37;;;;;;;3.75;3.00;;;24.40;66.30;;;;;;4971082;28;88822;-16
2021/07/25 05:43:03;;;;;;;2.90;2.50;;;24.40;66.30;;;;;;4970783;28;87230;-16
2021/07/25 05:45:28;;;;;;;4.20;3.15;;;24.50;66.50;;;;;;4970679;28;87166;-15
2021/07/25 05:47:54;;;;;;;5.13;3.15;;;24.50;66.40;;;;;;4970601;28;88197;-15
2021/07/25 05:50:19;;;;;;;5.97;3.42;;;24.40;66.40;;;;;;4969981;28;87633;-16
2021/07/25 05:52:51;;;;;;;5.32;2.75;;;24.50;66.60;;;;;;4969777;28;87729;-16
2021/07/25 05:55:21;;;;;;;8.00;3.20;;;24.50;66.60;;;;;;4971225;28;86912;-17
2021/07/25 05:57:47;;;;;;;5.15;2.92;;;24.50;66.60;;;;;;4970499;28;88160;-17
2021/07/25 06:00:13;;;;;;;7.57;3.13;;;24.50;66.60;;;;;;4970633;28;87620;-16
2021/07/25 06:02:49;;;;;;;8.05;3.00;;;24.50;66.40;;;;;;4969841;28;88589;-15
2021/07/25 06:05:14;;;;;;;6.97;3.08;;;24.50;66.20;;;;;;4969734;28;87493;-16
2021/07/25 06:07:40;;;;;;;5.85;2.72;;;24.50;66.00;;;;;;4969413;28;89937;-16
2021/07/25 06:10:06;;;;;;;6.93;3.03;;;24.50;66.10;;;;;;4969207;28;87656;-17
2021/07/25 06:12:31;;;;;;;5.18;2.88;;;24.50;66.00;;;;;;4970065;28;87515;-15
2021/07/25 06:14:57;;;;;;;8.15;3.00;;;24.50;66.10;;;;;;4969389;28;87698;-17
2021/07/25 06:17:22;;;;;;;9.85;3.10;;;24.50;66.10;;;;;;4969202;28;88169;-16
2021/07/25 06:19:48;;;;;;;3.72;2.33;;;24.50;66.20;;;;;;4970506;28;86860;-18
2021/07/25 06:22:14;;;;;;;6.07;3.05;;;24.50;66.10;;;;;;4969659;28;87937;-16
2021/07/25 06:24:39;;;;;;;7.65;2.75;;;24.60;66.30;;;;;;4969384;28;87968;-16
2021/07/25 06:27:05;;;;;;;11.30;3.95;;;24.60;66.20;;;;;;4968150;28;89183;-16
2021/07/25 06:29:30;;;;;;;6.30;2.85;;;24.60;66.20;;;;;;4969707;28;88876;-16
2021/07/25 06:31:56;;;;;;;7.68;2.60;;;24.60;66.30;;;;;;4970185;28;88215;-15
2021/07/25 06:34:21;;;;;;;12.80;2.95;;;24.60;66.30;;;;;;4970206;28;87217;-15
2021/07/25 06:36:47;;;;;;;8.88;2.63;;;24.60;66.30;;;;;;4967388;28;89566;-16
2021/07/25 06:39:13;;;;;;;7.47;2.80;;;24.60;66.40;;;;;;4983759;28;88126;-16
2021/07/25 06:41:38;;;;;;;12.43;3.20;;;24.60;66.50;;;;;;4969820;28;87437;-16
2021/07/25 06:44:05;;;;;;;14.35;4.53;;;24.70;66.50;;;;;;4969208;28;87918;-18
2021/07/25 06:46:31;;;;;;;14.65;4.00;;;24.70;66.60;;;;;;4969416;28;87970;-16
2021/07/25 06:48:56;;;;;;;13.15;3.85;;;24.70;66.60;;;;;;4969414;28;87580;-16
2021/07/25 06:51:22;;;;;;;14.60;4.00;;;24.70;66.60;;;;;;4968508;28;89001;-18
2021/07/25 06:53:48;;;;;;;31.55;7.28;;;24.80;66.70;;;;;;4968615;28;87718;-17
2021/07/25 06:56:13;;;;;;;60.75;10.98;;;24.80;66.90;;;;;;4969717;28;88007;-18
2021/07/25 06:58:41;;;;;;;49.67;10.20;;;24.80;67.10;;;;;;4969110;28;87725;-17
2021/07/25 07:01:08;;;;;;;36.38;8.98;;;24.80;67.20;;;;;;4968818;28;88061;-17
2021/07/25 07:03:36;;;;;;;34.00;8.13;;;24.80;67.20;;;;;;4968867;28;87866;-18
2021/07/25 07:06:06;;;;;;;26.30;7.45;;;24.80;67.20;;;;;;4957243;28;88602;-18
2021/07/25 07:08:32;;;;;;;32.47;8.35;;;24.80;67.20;;;;;;4963499;28;89621;-19
2021/07/25 07:11:13;;;;;;;31.67;8.63;;;24.80;67.30;;;;;;4949138;28;87106;-17
2021/07/25 07:13:39;;;;;;;29.15;7.18;;;24.80;67.20;;;;;;4968468;28;87385;-17
2021/07/25 07:16:05;;;;;;;25.42;6.30;;;24.80;67.10;;;;;;4968148;28;89019;-17
2021/07/25 07:18:31;;;;;;;22.45;6.95;;;24.80;67.30;;;;;;4969709;28;88300;-17
2021/07/25 07:20:56;;;;;;;20.05;6.60;;;24.80;67.40;;;;;;4967899;28;87899;-19
2021/07/25 07:23:29;;;;;;;18.67;6.13;;;24.80;67.40;;;;;;4968064;28;87749;-18
2021/07/25 07:25:56;;;;;;;20.95;6.38;;;24.80;67.60;;;;;;4967860;28;89870;-17
2021/07/25 07:28:23;;;;;;;17.65;5.88;;;24.80;67.50;;;;;;4969111;28;87926;-17
2021/07/25 07:30:54;;;;;;;18.77;4.78;;;24.80;67.30;;;;;;4968458;28;88115;-17
2021/07/25 07:33:24;;;;;;;14.50;4.97;;;24.80;67.50;;;;;;4966299;28;88621;-21
2021/07/25 07:35:51;;;;;;;21.67;4.20;;;24.70;67.40;;;;;;4979259;28;90389;-18
2021/07/25 07:38:19;;;;;;;17.58;4.55;;;24.70;67.40;;;;;;4971686;28;89134;-18
2021/07/25 07:40:46;;;;;;;17.67;4.40;;;24.70;67.50;;;;;;4971947;28;88085;-18
2021/07/25 07:43:13;;;;;;;9.70;3.88;;;24.70;67.70;;;;;;4972283;28;87690;-18
2021/07/25 07:45:41;;;;;;;15.13;6.43;;;24.70;67.50;;;;;;4958280;28;88408;-18
2021/07/25 07:48:07;;;;;;;23.45;9.18;;;24.70;67.50;;;;;;4975411;28;90268;-17
2021/07/25 07:50:35;;;;;;;26.27;6.32;;;24.70;67.90;;;;;;4968052;28;87845;-19
2021/07/25 07:53:01;;;;;;;13.40;5.53;;;24.70;67.70;;;;;;4972860;28;87570;-18
2021/07/25 07:55:29;;;;;;;15.95;5.75;;;24.70;67.70;;;;;;4972752;28;88213;-18
2021/07/25 07:57:58;;;;;;;16.23;5.63;;;24.70;67.90;;;;;;4972942;28;88756;-24
2021/07/25 08:00:27;;;;;;;12.43;4.60;;;24.70;68.00;;;;;;4973082;28;87599;-19
2021/07/25 08:02:53;;;;;;;7.10;3.83;;;24.70;68.00;;;;;;4970917;28;87584;-19
2021/07/25 08:05:20;;;;;;;16.20;3.90;;;24.70;67.80;;;;;;4970369;28;89002;-19
2021/07/25 08:07:46;;;;;;;7.70;3.80;;;24.70;67.90;;;;;;4971686;28;88457;-18
2021/07/25 08:10:13;;;;;;;10.45;3.88;;;24.70;67.70;;;;;;4972813;28;88226;-18
2021/07/25 08:12:39;;;;;;;8.73;3.50;;;24.70;67.90;;;;;;4970658;28;88267;-18
2021/07/25 08:15:06;;;;;;;6.63;3.30;;;24.60;68.20;;;;;;4970937;28;87891;-20
2021/07/25 08:17:32;;;;;;;7.55;3.30;;;24.60;68.40;;;;;;4971137;28;88471;-16
2021/07/25 08:19:58;;;;;;;10.35;3.03;;;24.70;68.50;;;;;;4971463;28;87211;-17
2021/07/25 08:22:23;;;;;;;9.65;3.80;;;24.70;68.10;;;;;;4972255;28;87447;-16
2021/07/25 08:24:49;;;;;;;7.45;3.03;;;24.70;68.00;;;;;;4971225;28;87361;-18
2021/07/25 08:27:15;;;;;;;7.40;2.92;;;24.60;68.20;;;;;;4971492;28;88317;-17
2021/07/25 08:29:41;;;;;;;9.65;3.05;;;24.70;68.30;;;;;;4971598;28;88180;-16
2021/07/25 08:32:11;;;;;;;12.18;3.53;;;24.70;68.50;;;;;;4971865;28;88120;-16
2021/07/25 08:34:38;;;;;;;9.98;3.20;;;24.70;69.20;;;;;;4972020;28;87402;-16
2021/07/25 08:37:04;;;;;;;7.18;3.40;;;24.70;69.40;;;;;;4972011;28;88079;-15
2021/07/25 08:39:30;;;;;;;7.57;3.35;;;24.70;69.00;;;;;;4970672;28;87048;-18
2021/07/25 08:42:04;;;;;;;7.50;3.65;;;24.70;69.30;;;;;;4971688;28;87819;-18
2021/07/25 08:44:41;;;;;;;9.25;3.33;;;24.70;68.60;;;;;;4971426;28;87829;-18
2021/07/25 08:47:19;;;;;;;4.72;2.80;;;24.70;68.50;;;;;;4970451;28;89014;-18
2021/07/25 08:49:51;;;;;;;7.53;3.30;;;24.70;68.40;;;;;;4970950;28;88195;-18
2021/07/25 08:52:19;;;;;;;9.60;3.42;;;24.60;68.60;;;;;;4970490;28;87711;-18
2021/07/25 08:54:45;;;;;;;6.88;2.90;;;24.60;69.00;;;;;;4970353;28;89180;-17
2021/07/25 08:57:17;;;;;;;8.93;2.85;;;24.70;69.10;;;;;;4972255;28;88208;-17
2021/07/25 08:59:46;;;;;;;7.25;2.85;;;24.70;69.20;;;;;;4971676;28;88236;-18
2021/07/25 09:02:20;;;;;;;6.35;2.92;;;24.80;69.20;;;;;;4970727;28;87168;-18
2021/07/25 09:04:47;;;;;;;4.93;2.55;;;24.80;69.00;;;;;;4971458;28;88568;-19
2021/07/25 09:07:13;;;;;;;10.02;2.55;;;24.80;68.80;;;;;;4971804;28;88099;-18
2021/07/25 09:09:41;;;;;;;8.32;2.70;;;24.90;68.60;;;;;;4972145;28;87409;-19
2021/07/25 09:12:08;;;;;;;6.10;2.30;;;24.90;68.40;;;;;;4963790;28;88191;-18
2021/07/25 09:14:33;;;;;;;9.85;2.78;;;24.80;68.50;;;;;;4951313;28;88207;-17
2021/07/25 09:16:59;;;;;;;7.18;2.47;;;24.90;68.60;;;;;;4951351;28;88217;-19
2021/07/25 09:19:25;;;;;;;5.25;2.58;;;24.80;68.00;;;;;;4951398;28;88655;-18
2021/07/25 09:21:53;;;;;;;4.43;2.20;;;24.80;67.90;;;;;;4951456;28;87337;-19
2021/07/25 09:24:28;;;;;;;5.82;2.22;;;24.80;68.50;;;;;;4951501;28;88310;-19
2021/07/25 09:27:03;;;;;;;6.72;3.25;;;24.80;68.50;;;;;;4971628;28;89964;-18
2021/07/25 09:29:37;;;;;;;15.27;3.20;;;24.80;68.80;;;;;;4972757;28;87150;-18
2021/07/25 09:32:16;;;;;;;4.15;2.65;;;24.80;68.80;;;;;;4949975;28;88039;-18
2021/07/25 09:34:52;;;;;;;11.57;3.35;;;24.80;68.80;;;;;;4969241;28;91928;-18
2021/07/25 09:37:19;;;;;;;9.55;2.72;;;24.80;69.20;;;;;;4971712;28;87537;-18
2021/07/25 09:40:02;;;;;;;7.13;2.50;;;24.80;69.50;;;;;;4971939;28;88113;-19
2021/07/25 09:42:32;;;;;;;8.50;2.77;;;24.80;69.30;;;;;;4971653;28;87820;-18
2021/07/25 09:45:01;;;;;;;6.63;2.35;;;24.80;69.10;;;;;;4970865;28;89223;-18
2021/07/25 09:47:30;;;;;;;6.90;2.75;;;24.80;68.80;;;;;;4971546;28;88638;-17
2021/07/25 09:49:56;;;;;;;5.80;2.28;;;24.80;68.90;;;;;;4971886;28;88048;-18
2021/07/25 09:52:30;;;;;;;5.60;2.47;;;24.80;68.40;;;;;;4970725;28;88269;-19
2021/07/25 09:54:58;;;;;;;;;;;24.80;68.40;;;;;;4971840;28;88356;-18
2021/07/25 09:57:25;;;;;;;5.20;2.67;;;24.80;68.70;;;;;;4970831;28;87469;-18
2021/07/25 09:59:56;;;;;;;5.13;3.10;;;24.80;70.10;;;;;;4971680;28;87850;-19
2021/07/25 10:02:38;;;;;;;9.45;2.38;;;24.80;69.80;;;;;;4971424;28;86987;-17
2021/07/25 10:05:09;;;;;;;5.70;2.63;;;24.80;69.90;;;;;;4971136;28;88228;-17
2021/07/25 10:07:35;;;;;;;5.22;2.53;;;24.80;69.60;;;;;;4971134;28;87536;-17
2021/07/25 10:10:01;;;;;;;4.25;1.48;;;24.70;69.70;;;;;;4970792;28;89137;-18
2021/07/25 10:12:29;;;;;;;7.43;1.80;;;24.70;70.10;;;;;;4971081;28;87537;-18
2021/07/25 10:15:01;;;;;;;5.28;2.03;;;24.70;70.10;;;;;;4971656;28;87173;-18
2021/07/25 10:17:31;;;;;;;7.00;2.00;;;24.70;70.60;;;;;;4971395;28;87341;-17
2021/07/25 10:19:58;;;;;;;6.63;1.67;;;24.70;71.80;;;;;;4971707;28;88084;-17
2021/07/25 10:22:29;;;;;;;4.72;2.15;;;24.70;72.10;;;;;;4970483;28;88390;-18
2021/07/25 10:24:57;;;;;;;5.20;1.65;;;24.70;72.20;;;;;;4971160;28;88195;-17
2021/07/25 10:27:24;;;;;;;4.30;1.33;;;24.70;72.60;;;;;;4971940;28;87797;-18
2021/07/25 10:29:52;;;;;;;4.00;1.25;;;24.70;72.30;;;;;;4971430;28;89592;-18
2021/07/25 10:32:19;;;;;;;3.90;1.98;;;24.70;72.10;;;;;;4970020;28;88033;-18
2021/07/25 10:34:48;;;;;;;3.40;1.70;;;24.70;72.40;;;;;;4970085;28;89102;-18
2021/07/25 10:37:15;;;;;;;6.13;1.55;;;24.70;72.30;;;;;;4970842;28;88951;-17
2021/07/25 10:39:50;;;;;;;4.18;1.70;;;24.70;72.10;;;;;;4965258;28;88016;-19
2021/07/25 10:42:25;;;;;;;6.25;1.52;;;24.70;72.30;;;;;;4970509;28;87099;-20
2021/07/25 10:44:52;;;;;;;4.97;2.00;;;24.70;72.00;;;;;;4984861;28;88576;-16
2021/07/25 10:47:23;;;;;;;4.38;2.20;;;24.70;72.30;;;;;;4952828;28;88273;-20
2021/07/25 10:50:03;;;;;;;6.20;1.92;;;24.70;72.40;;;;;;4965146;28;87508;-19
2021/07/25 10:52:49;;;;;;;8.05;2.47;;;24.70;72.20;;;;;;4970540;28;87387;-19
2021/07/25 10:55:38;;;;;;;5.60;1.85;;;24.70;72.20;;;;;;4970015;28;88009;-18
2021/07/25 10:58:06;;;;;;;7.72;1.95;;;24.80;72.70;;;;;;4971062;28;87915;-19
2021/07/25 11:00:51;;;;;;;6.88;1.83;;;24.80;72.80;;;;;;4969224;28;88754;-19
2021/07/25 11:03:34;;;;;;;6.82;1.92;;;24.80;72.30;;;;;;4966459;28;88861;-18
2021/07/25 11:06:00;;;;;;;5.60;2.10;;;24.80;71.90;;;;;;4950239;28;87664;-20
2021/07/25 11:08:43;;;;;;;4.13;2.13;;;24.80;71.80;;;;;;4950595;28;88135;-18
2021/07/25 11:11:29;;;;;;;4.93;2.10;;;24.80;71.70;;;;;;4955559;28;87923;-19
2021/07/25 11:13:55;;;;;;;8.35;2.13;;;24.80;71.50;;;;;;4952987;28;87778;-19
2021/07/25 11:16:30;;;;;;;4.80;2.35;;;24.80;71.30;;;;;;4952970;28;88338;-18
2021/07/25 11:18:59;;;;;;;6.90;2.10;;;24.80;71.40;;;;;;4973256;28;88311;-18
2021/07/25 11:21:31;;;;;;;4.95;1.98;;;24.80;71.20;;;;;;4973034;28;88178;-19
2021/07/25 11:23:57;;;;;;;3.33;2.35;;;24.80;71.20;;;;;;4970727;28;87948;-19
2021/07/25 11:26:38;;;;;;;4.70;1.83;;;24.80;71.10;;;;;;4972292;28;88750;-18
2021/07/25 11:29:09;;;;;;;3.95;1.92;;;24.80;71.00;;;;;;4972565;28;88851;-17
2021/07/25 11:31:37;;;;;;;10.52;3.20;;;24.80;70.90;;;;;;4973120;28;87480;-18
2021/07/25 11:34:06;;;;;;;5.20;2.25;;;24.80;70.80;;;;;;4973020;28;87485;-18
2021/07/25 11:36:32;;;;;;;6.70;2.15;;;24.80;70.60;;;;;;4972353;28;87707;-17
2021/07/25 11:39:00;;;;;;;5.80;2.35;;;24.80;70.50;;;;;;4971764;28;87891;-16
2021/07/25 11:41:31;;;;;;;6.90;2.58;;;24.80;70.40;;;;;;4972813;28;87735;-16
2021/07/25 11:44:09;;;;;;;4.72;2.55;;;24.80;70.30;;;;;;4972925;28;88628;-17
2021/07/25 11:46:45;;;;;;;5.32;2.20;;;24.80;70.40;;;;;;4973270;28;87396;-17
2021/07/25 11:49:20;;;;;;;5.50;2.25;;;24.80;70.20;;;;;;4972536;28;88494;-19
2021/07/25 11:52:00;;;;;;;4.47;2.28;;;24.80;70.10;;;;;;4971222;28;88774;-17
2021/07/25 11:54:37;;;;;;;6.18;2.30;;;24.80;70.00;;;;;;4972889;28;87524;-18
2021/07/25 11:57:08;;;;;;;5.03;2.13;;;24.80;70.00;;;;;;4972536;28;88344;-17
2021/07/25 11:59:56;;;;;;;5.88;2.13;;;24.80;69.80;;;;;;4973335;28;87845;-17
2021/07/25 12:02:27;;;;;;;5.07;2.30;;;24.80;69.70;;;;;;4968173;28;87488;-17
2021/07/25 12:04:57;;;;;;;6.47;2.90;;;24.80;69.70;;;;;;4953312;28;87932;-17
2021/07/25 12:07:36;;;;;;;6.40;2.30;;;24.90;69.50;;;;;;4972755;28;88129;-17
2021/07/25 12:10:03;;;;;;;3.60;2.15;;;24.80;69.40;;;;;;4973473;28;87933;-17
2021/07/25 12:12:32;;;;;;;8.10;2.75;;;24.80;69.30;;;;;;4973158;28;87595;-17
2021/07/25 12:15:00;;;;;;;2.55;1.80;;;24.80;69.20;;;;;;4972934;28;88396;-16
2021/07/25 12:17:49;;;;;;;4.47;2.30;;;24.90;69.10;;;;;;4971262;28;88646;-17
2021/07/25 12:20:15;;;;;;;5.82;2.53;;;24.90;69.00;;;;;;4971127;28;88289;-16
2021/07/25 12:23:00;;;;;;;2.60;1.80;;;24.90;68.90;;;;;;4972444;28;87734;-19
2021/07/25 12:25:26;;;;;;;3.65;1.90;;;24.90;68.80;;;;;;4972847;28;87962;-16
2021/07/25 12:28:09;;;;;;;4.30;1.92;;;24.90;68.70;;;;;;4972603;28;88167;-17
2021/07/25 12:30:55;;;;;;;5.57;2.40;;;24.90;68.60;;;;;;4971430;28;87955;-18
2021/07/25 12:33:29;;;;;;;4.38;2.25;;;24.90;68.40;;;;;;4972474;28;87761;-17
2021/07/25 12:35:55;;;;;;;3.88;1.80;;;24.90;68.50;;;;;;4972963;28;87203;-16
2021/07/25 12:38:21;;;;;;;4.65;2.03;;;24.90;68.50;;;;;;4972442;28;88031;-17
2021/07/25 12:40:46;;;;;;;5.72;2.47;;;24.90;68.20;;;;;;4971881;28;87871;-18
2021/07/25 12:43:16;;;;;;;4.55;2.00;;;24.90;68.20;;;;;;4971409;28;88451;-17
2021/07/25 12:45:42;;;;;;;4.05;2.28;;;24.90;68.20;;;;;;4971330;28;88321;-17
2021/07/25 12:48:20;;;;;;;4.72;1.80;;;24.90;68.10;;;;;;4970914;28;88265;-17
2021/07/25 12:53:31;;;;;;;5.13;2.13;;;24.90;68.00;;;;;;4971446;28;87519;-17
2021/07/25 12:55:58;;;;;;;5.55;2.17;;;24.90;68.00;;;;;;4971788;28;88338;-17
2021/07/25 12:58:30;;;;;;;6.20;2.15;;;24.90;67.90;;;;;;4970959;28;88661;-17